createdAt,value
2022-11-17T00:00:05.642Z,4031.2
2022-11-17T00:05:42.052Z,4028.4
2022-11-17T00:11:17.063Z,4029.7
2022-11-17T00:17:13.313Z,4026.5
2022-11-17T00:22:51.269Z,4025.4
2022-11-17T00:28:25.758Z,4024.7
2022-11-17T00:34:49.717Z,4025.9
2022-11-17T00:40:29.283Z,4025.4
2022-11-17T00:46:04.483Z,4027.2
2022-11-17T00:51:45.622Z,4024.4
2022-11-17T00:57:20.885Z,4025.5
2022-11-17T01:03:08.179Z,4025.9
2022-11-17T01:08:44.033Z,4025
2022-11-17T01:14:19.523Z,4024.2
2022-11-17T01:19:54.704Z,4023.9
2022-11-17T01:25:31.500Z,4025.5
2022-11-17T01:31:06.542Z,4024
2022-11-17T01:36:44.132Z,4022.5
2022-11-17T01:42:28.916Z,4025.2
2022-11-17T01:48:25.821Z,4020.3
2022-11-17T01:54:02.492Z,4025.5
2022-11-17T01:59:37.992Z,4021.3
2022-11-17T02:05:17.363Z,4022.3
2022-11-17T02:11:13.139Z,4021.7
2022-11-17T02:16:52.675Z,4021
2022-11-17T02:22:31.800Z,4021.2
2022-11-17T02:28:06.955Z,4021.8
2022-11-17T02:33:51.105Z,4023.5
2022-11-17T02:39:26.244Z,4020.5
2022-11-17T02:45:22.137Z,4021.8
2022-11-17T02:51:03.911Z,4018.7
2022-11-17T02:56:45.774Z,4020.3
2022-11-17T03:02:29.486Z,4019.3
2022-11-17T03:08:34.036Z,4018.2
2022-11-17T03:15:03.981Z,4017.5
2022-11-17T03:20:46.335Z,4017.8
2022-11-17T03:26:23.069Z,4016.3
2022-11-17T03:31:58.127Z,4018.7
2022-11-17T03:37:33.014Z,4016.5
2022-11-17T03:43:10.432Z,4020.2
2022-11-17T03:49:07.557Z,4015
2022-11-17T03:56:10.813Z,4015.1
2022-11-17T04:01:47.936Z,4013.8
2022-11-17T04:07:24.014Z,4016.8
2022-11-17T04:13:44.653Z,4014
2022-11-17T04:20:50.476Z,4012.3
2022-11-17T04:26:34.577Z,4009.6
2022-11-17T04:32:09.624Z,4011.8
2022-11-17T04:37:53.991Z,4011
2022-11-17T04:43:33.525Z,4009.8
2022-11-17T04:49:30.583Z,4006.4
2022-11-17T04:55:04.243Z,4010.3
2022-11-17T05:00:39.735Z,4009.6
2022-11-17T05:06:16.526Z,4007.1
2022-11-17T05:11:53.237Z,4009.1
2022-11-17T05:17:31.960Z,4007.8
2022-11-17T05:23:32.090Z,4007.9
2022-11-17T05:29:09.294Z,4004.6
2022-11-17T05:34:58.607Z,4006.8
2022-11-17T05:40:38.331Z,4005.8
2022-11-17T05:46:35.644Z,4003.8
2022-11-17T05:52:12.252Z,4004.6
2022-11-17T05:58:28.991Z,4003.3
2022-11-17T06:04:05.526Z,4002.2
2022-11-17T06:09:48.643Z,4003.1
2022-11-17T06:15:23.810Z,4005.6
2022-11-17T06:21:02.159Z,3999.9
2022-11-17T06:26:42.713Z,4000.7
2022-11-17T06:32:17.857Z,4000.6
2022-11-17T06:37:54.342Z,4000.6
2022-11-17T06:43:51.548Z,4001.2
2022-11-17T06:49:48.324Z,3995.7
2022-11-17T06:55:29.295Z,3999.4
2022-11-17T07:01:34.785Z,3997.2
2022-11-17T07:07:31.492Z,3997.7
2022-11-17T07:13:07.350Z,3995.9
2022-11-17T07:19:02.736Z,3994.9
2022-11-17T07:24:46.250Z,3995.5
2022-11-17T07:30:27.636Z,3993.4
2022-11-17T07:36:04.757Z,3995
2022-11-17T07:41:52.618Z,3992.7
2022-11-17T07:47:52.136Z,3988.8
2022-11-17T07:53:25.758Z,3992.4
2022-11-17T07:59:01.324Z,3993.5
2022-11-17T08:04:40.594Z,3988.7
2022-11-17T08:10:34.287Z,3989.7
2022-11-17T08:16:33.962Z,3989.7
2022-11-17T08:22:10.871Z,3988.7
2022-11-17T08:27:49.448Z,3988.5
2022-11-17T08:33:34.281Z,3988.8
2022-11-17T08:39:41.732Z,3988.2
2022-11-17T08:45:20.396Z,3987.3
2022-11-17T08:50:58.696Z,3984.2
2022-11-17T08:56:35.753Z,3985
2022-11-17T09:02:14.781Z,3987
2022-11-17T09:08:47.723Z,3985
2022-11-17T09:14:24.537Z,3985.3
2022-11-17T09:20:00.792Z,3987.5
2022-11-17T09:25:35.926Z,3984.8
2022-11-17T09:31:42.979Z,3987.2
2022-11-17T09:37:44.945Z,3986
2022-11-17T09:43:40.101Z,3984.8
2022-11-17T09:49:38.806Z,3982.5
2022-11-17T09:55:15.685Z,3984.8
2022-11-17T10:00:56.383Z,3985.7
2022-11-17T10:06:39.402Z,3983.5
2022-11-17T10:12:19.152Z,3980
2022-11-17T10:17:57.328Z,3982.1
2022-11-17T10:23:46.428Z,3981.8
2022-11-17T10:29:24.045Z,3983
2022-11-17T10:35:10.284Z,3984
2022-11-17T10:40:46.523Z,3983.2
2022-11-17T10:46:47.756Z,3979.6
2022-11-17T10:52:37.158Z,3980.8
2022-11-17T10:58:16.267Z,3981.3
2022-11-17T11:04:10.767Z,3982.1
2022-11-17T11:10:05.531Z,3980
2022-11-17T11:15:41.648Z,3977.1
2022-11-17T11:21:20.230Z,3978.6
2022-11-17T11:27:01.891Z,3978.6
2022-11-17T11:32:39.597Z,3978
2022-11-17T11:38:17.695Z,3979.6
2022-11-17T11:43:53.452Z,3977.3
2022-11-17T11:49:51.487Z,3974.9
2022-11-17T11:55:25.077Z,3976.6
2022-11-17T12:01:00.902Z,3976.4
2022-11-17T12:06:43.068Z,3975.3
2022-11-17T12:12:19.180Z,3974.1
2022-11-17T12:18:00.343Z,3973.8
2022-11-17T12:23:37.348Z,3974.4
2022-11-17T12:29:59.133Z,3973.6
2022-11-17T12:35:34.720Z,3973.1
2022-11-17T12:41:10.902Z,3972.9
2022-11-17T12:47:08.825Z,3968.2
2022-11-17T12:52:42.276Z,3970.8
2022-11-17T12:58:17.769Z,3971.6
2022-11-17T13:03:53.425Z,3973.3
2022-11-17T13:09:30.017Z,3975.6
2022-11-17T13:15:07.157Z,3971.4
2022-11-17T13:20:43.089Z,3973.1
2022-11-17T13:26:18.995Z,3972.1
2022-11-17T13:31:55.077Z,3972.3
2022-11-17T13:37:46.216Z,3971.9
2022-11-17T13:43:35.719Z,3972.4
2022-11-17T13:49:34.031Z,3965.9
2022-11-17T13:55:07.739Z,3967.7
2022-11-17T14:00:45.243Z,3968.6
2022-11-17T14:06:21.022Z,3967.9
2022-11-17T14:11:56.501Z,3966.7
2022-11-17T14:17:32.224Z,3966.4
2022-11-17T14:23:10.821Z,3966.2
2022-11-17T14:28:46.880Z,3963
2022-11-17T14:34:24.254Z,3964.4
2022-11-17T14:40:14.494Z,3964.2
2022-11-17T14:45:51.260Z,3966.9
2022-11-17T14:51:26.846Z,3961.9
2022-11-17T14:57:03.897Z,3961.2
2022-11-17T15:02:41.948Z,3962.2
2022-11-17T15:08:19.867Z,3962.2
2022-11-17T15:13:55.536Z,3960.4
2022-11-17T15:19:34.366Z,3960.7
2022-11-17T15:25:10.120Z,3961.7
2022-11-17T15:30:46.823Z,3958
2022-11-17T15:36:23.229Z,3958.9
2022-11-17T15:41:58.840Z,3959
2022-11-17T15:47:56.626Z,3954.7
2022-11-17T15:53:30.713Z,3958.9
2022-11-17T15:59:06.827Z,3959.4
2022-11-17T16:04:42.288Z,3958.2
2022-11-17T16:10:21.795Z,3954.8
2022-11-17T16:15:57.802Z,3955.8
2022-11-17T16:21:33.365Z,3955.5
2022-11-17T16:27:14.875Z,3957.4
2022-11-17T16:32:51.437Z,3954.2
2022-11-17T16:38:27.999Z,3952.3
2022-11-17T16:44:04.233Z,3953
2022-11-17T16:49:39.625Z,3951.3
2022-11-17T16:55:15.947Z,3951.2
2022-11-17T17:00:52.252Z,3951
2022-11-17T17:06:27.463Z,3951.3
2022-11-17T17:12:02.787Z,3951.2
2022-11-17T17:17:38.817Z,3950.5
2022-11-17T17:23:15.769Z,3952.3
2022-11-17T17:28:51.956Z,3947.1
2022-11-17T17:34:28.472Z,3952
2022-11-17T17:40:04.275Z,3949
2022-11-17T17:45:39.830Z,3948.3
2022-11-17T17:51:15.338Z,3947.3
2022-11-17T17:56:52.514Z,3949.1
2022-11-17T18:02:30.924Z,3946.6
2022-11-17T18:08:27.421Z,3946.1
2022-11-17T18:14:03.903Z,3947
2022-11-17T18:19:40.356Z,3947.3
2022-11-17T18:25:22.733Z,3949.8
2022-11-17T18:31:00.035Z,3946
2022-11-17T18:36:35.842Z,3944.1
2022-11-17T18:42:12.053Z,3946.5
2022-11-17T18:48:09.294Z,3943.3
2022-11-17T18:53:44.011Z,3945.3
2022-11-17T18:59:21.341Z,3946.1
2022-11-17T19:04:58.548Z,3947.5
2022-11-17T19:10:35.801Z,3943.3
2022-11-17T19:16:12.142Z,3944.5
2022-11-17T19:21:48.908Z,3940.6
2022-11-17T19:27:27.164Z,3945
2022-11-17T19:33:02.843Z,3945.8
2022-11-17T19:38:39.198Z,3940.9
2022-11-17T19:44:15.317Z,3941.8
2022-11-17T19:49:51.097Z,3943.3
2022-11-17T19:55:27.896Z,3945.1
2022-11-17T20:01:05.617Z,3944.5
2022-11-17T20:06:42.513Z,3945.3
2022-11-17T20:12:25.251Z,3940.6
2022-11-17T20:18:02.386Z,3941.3
2022-11-17T20:23:39.942Z,3944.3
2022-11-17T20:29:25.787Z,3941.8
2022-11-17T20:35:04.781Z,3945.1
2022-11-17T20:40:43.300Z,3941.3
2022-11-17T20:46:41.438Z,3940.8
2022-11-17T20:52:18.209Z,3943.1
2022-11-17T20:57:55.763Z,3942.9
2022-11-17T21:03:34.334Z,3940.8
2022-11-17T21:09:12.899Z,3942.6
2022-11-17T21:14:51.792Z,3941.4
2022-11-17T21:20:29.235Z,3944.1
2022-11-17T21:26:06.684Z,3939.1
2022-11-17T21:31:42.923Z,3940.4
2022-11-17T21:37:19.131Z,3941.8
2022-11-17T21:42:56.667Z,3942.3
2022-11-17T21:48:54.742Z,3936.3
2022-11-17T21:54:29.382Z,3938.9
2022-11-17T22:00:04.773Z,3936.8
2022-11-17T22:05:41.870Z,3939.3
2022-11-17T22:11:18.861Z,3939.1
2022-11-17T22:16:54.848Z,3939.4
2022-11-17T22:22:31.646Z,3937.4
2022-11-17T22:28:07.681Z,3937.9
2022-11-17T22:33:43.368Z,3939.9
2022-11-17T22:39:22.646Z,3938.8
2022-11-17T22:45:00.263Z,3936.8
2022-11-17T22:50:36.990Z,3937.9
2022-11-17T22:56:12.643Z,3937.6
2022-11-17T23:01:48.698Z,3935.4
2022-11-17T23:07:25.289Z,3935.2
2022-11-17T23:13:00.766Z,3934.1
2022-11-17T23:18:36.475Z,3935.2
2022-11-17T23:24:12.353Z,3935.9
2022-11-17T23:29:49.559Z,3934.6
2022-11-17T23:35:25.521Z,3934.9
2022-11-17T23:41:01.703Z,3934.9
2022-11-17T23:46:59.291Z,3931.7
2022-11-17T23:52:32.716Z,3934.1
2022-11-17T23:58:08.816Z,3934.7
